sensor_id;sensor_type;location;lat;lon;timestamp;temperature;humidity
4052;DHT22;2040;50.924;11.604;2022-09-09T00:00:25;13.90;99.90
4052;DHT22;2040;50.924;11.604;2022-09-09T00:03:12;13.90;99.90
4052;DHT22;2040;50.924;11.604;2022-09-09T00:05:59;13.80;99.90
4052;DHT22;2040;50.924;11.604;2022-09-09T00:08:52;13.80;99.90
4052;DHT22;2040;50.924;11.604;2022-09-09T00:11:34;13.80;99.90
4052;DHT22;2040;50.924;11.604;2022-09-09T00:14:03;13.70;99.90
4052;DHT22;2040;50.924;11.604;2022-09-09T00:16:36;13.60;99.90
4052;DHT22;2040;50.924;11.604;2022-09-09T00:19:07;13.80;99.90
4052;DHT22;2040;50.924;11.604;2022-09-09T00:21:43;13.50;99.90
4052;DHT22;2040;50.924;11.604;2022-09-09T00:24:19;13.40;99.90
4052;DHT22;2040;50.924;11.604;2022-09-09T00:26:49;13.30;99.90
4052;DHT22;2040;50.924;11.604;2022-09-09T00:29:56;13.20;99.90
4052;DHT22;2040;50.924;11.604;2022-09-09T00:32:20;13.20;99.90
4052;DHT22;2040;50.924;11.604;2022-09-09T00:37:46;13.10;99.90
4052;DHT22;2040;50.924;11.604;2022-09-09T00:40:34;13.10;99.90
4052;DHT22;2040;50.924;11.604;2022-09-09T00:51:17;13.20;99.90
4052;DHT22;2040;50.924;11.604;2022-09-09T00:54:13;13.10;99.90
4052;DHT22;2040;50.924;11.604;2022-09-09T00:56:47;13.10;99.90
4052;DHT22;2040;50.924;11.604;2022-09-09T01:02:01;13.20;99.90
4052;DHT22;2040;50.924;11.604;2022-09-09T01:04:34;13.10;99.90
4052;DHT22;2040;50.924;11.604;2022-09-09T01:07:17;13.00;99.90
4052;DHT22;2040;50.924;11.604;2022-09-09T01:09:57;12.90;99.90
4052;DHT22;2040;50.924;11.604;2022-09-09T01:12:42;12.90;99.90
4052;DHT22;2040;50.924;11.604;2022-09-09T01:15:16;12.90;99.90
4052;DHT22;2040;50.924;11.604;2022-09-09T01:17:55;12.80;99.90
4052;DHT22;2040;50.924;11.604;2022-09-09T01:26:10;12.70;99.90
4052;DHT22;2040;50.924;11.604;2022-09-09T01:28:38;12.70;99.90
4052;DHT22;2040;50.924;11.604;2022-09-09T01:31:06;12.70;99.90
4052;DHT22;2040;50.924;11.604;2022-09-09T01:33:34;12.60;99.90
4052;DHT22;2040;50.924;11.604;2022-09-09T01:39:22;12.50;99.90
4052;DHT22;2040;50.924;11.604;2022-09-09T01:41:47;12.50;99.90
4052;DHT22;2040;50.924;11.604;2022-09-09T01:44:13;12.50;99.90
4052;DHT22;2040;50.924;11.604;2022-09-09T01:46:39;12.60;99.90
4052;DHT22;2040;50.924;11.604;2022-09-09T01:49:06;12.80;99.90
4052;DHT22;2040;50.924;11.604;2022-09-09T01:51:33;12.90;99.90
4052;DHT22;2040;50.924;11.604;2022-09-09T01:53:59;12.90;99.90
4052;DHT22;2040;50.924;11.604;2022-09-09T01:59:43;12.90;99.90
4052;DHT22;2040;50.924;11.604;2022-09-09T02:02:14;12.90;99.90
4052;DHT22;2040;50.924;11.604;2022-09-09T02:04:49;12.90;99.90
4052;DHT22;2040;50.924;11.604;2022-09-09T02:07:38;12.90;99.90
4052;DHT22;2040;50.924;11.604;2022-09-09T02:10:24;12.90;99.90
4052;DHT22;2040;50.924;11.604;2022-09-09T02:13:09;13.00;99.90
4052;DHT22;2040;50.924;11.604;2022-09-09T02:15:47;13.10;99.90
4052;DHT22;2040;50.924;11.604;2022-09-09T02:18:21;13.20;99.90
4052;DHT22;2040;50.924;11.604;2022-09-09T02:20:50;13.20;99.90
4052;DHT22;2040;50.924;11.604;2022-09-09T02:23:17;13.40;99.90
4052;DHT22;2040;50.924;11.604;2022-09-09T02:25:44;13.50;99.90
4052;DHT22;2040;50.924;11.604;2022-09-09T02:28:13;13.50;99.90
4052;DHT22;2040;50.924;11.604;2022-09-09T02:30:40;13.40;99.90
4052;DHT22;2040;50.924;11.604;2022-09-09T02:33:09;13.40;99.90
4052;DHT22;2040;50.924;11.604;2022-09-09T02:35:38;13.50;99.90
4052;DHT22;2040;50.924;11.604;2022-09-09T02:38:08;13.60;99.90
4052;DHT22;2040;50.924;11.604;2022-09-09T02:40:35;13.70;99.90
4052;DHT22;2040;50.924;11.604;2022-09-09T02:43:01;13.60;99.90
4052;DHT22;2040;50.924;11.604;2022-09-09T02:48:30;13.70;99.90
4052;DHT22;2040;50.924;11.604;2022-09-09T02:51:08;13.70;99.90
4052;DHT22;2040;50.924;11.604;2022-09-09T02:53:47;13.70;99.90
4052;DHT22;2040;50.924;11.604;2022-09-09T02:56:16;13.70;99.90
4052;DHT22;2040;50.924;11.604;2022-09-09T02:58:42;13.60;99.90
4052;DHT22;2040;50.924;11.604;2022-09-09T03:01:08;13.60;99.90
4052;DHT22;2040;50.924;11.604;2022-09-09T03:03:34;13.60;99.90
4052;DHT22;2040;50.924;11.604;2022-09-09T03:06:00;13.70;99.90
4052;DHT22;2040;50.924;11.604;2022-09-09T03:08:26;13.70;99.90
4052;DHT22;2040;50.924;11.604;2022-09-09T03:10:54;13.70;99.90
4052;DHT22;2040;50.924;11.604;2022-09-09T03:13:20;13.70;99.90
4052;DHT22;2040;50.924;11.604;2022-09-09T03:15:45;13.60;99.90
4052;DHT22;2040;50.924;11.604;2022-09-09T03:18:11;13.60;99.90
4052;DHT22;2040;50.924;11.604;2022-09-09T03:20:36;13.60;99.90
4052;DHT22;2040;50.924;11.604;2022-09-09T03:23:02;13.60;99.90
4052;DHT22;2040;50.924;11.604;2022-09-09T03:25:28;13.60;99.90
4052;DHT22;2040;50.924;11.604;2022-09-09T03:27:54;13.60;99.90
4052;DHT22;2040;50.924;11.604;2022-09-09T03:30:25;13.70;99.90
4052;DHT22;2040;50.924;11.604;2022-09-09T03:32:51;13.70;99.90
4052;DHT22;2040;50.924;11.604;2022-09-09T03:35:17;13.70;99.90
4052;DHT22;2040;50.924;11.604;2022-09-09T03:37:43;13.70;99.90
4052;DHT22;2040;50.924;11.604;2022-09-09T03:40:09;13.80;99.90
4052;DHT22;2040;50.924;11.604;2022-09-09T03:42:36;13.80;99.90
4052;DHT22;2040;50.924;11.604;2022-09-09T03:45:07;13.80;99.90
4052;DHT22;2040;50.924;11.604;2022-09-09T03:47:33;13.90;99.90
4052;DHT22;2040;50.924;11.604;2022-09-09T03:49:58;13.90;99.90
4052;DHT22;2040;50.924;11.604;2022-09-09T03:52:24;13.90;99.90
4052;DHT22;2040;50.924;11.604;2022-09-09T03:54:52;14.00;99.90
4052;DHT22;2040;50.924;11.604;2022-09-09T03:57:18;14.00;99.90
4052;DHT22;2040;50.924;11.604;2022-09-09T03:59:44;14.00;99.90
4052;DHT22;2040;50.924;11.604;2022-09-09T04:02:10;14.10;99.90
4052;DHT22;2040;50.924;11.604;2022-09-09T04:04:35;14.10;99.90
4052;DHT22;2040;50.924;11.604;2022-09-09T04:07:01;14.10;99.90
4052;DHT22;2040;50.924;11.604;2022-09-09T04:09:27;14.20;99.90
4052;DHT22;2040;50.924;11.604;2022-09-09T04:11:52;14.20;99.90
4052;DHT22;2040;50.924;11.604;2022-09-09T04:14:19;14.20;99.90
4052;DHT22;2040;50.924;11.604;2022-09-09T04:16:44;14.20;99.90
4052;DHT22;2040;50.924;11.604;2022-09-09T04:19:11;14.10;99.90
4052;DHT22;2040;50.924;11.604;2022-09-09T04:21:40;14.10;99.90
4052;DHT22;2040;50.924;11.604;2022-09-09T04:24:07;14.10;99.90
4052;DHT22;2040;50.924;11.604;2022-09-09T04:26:33;14.10;99.90
4052;DHT22;2040;50.924;11.604;2022-09-09T04:28:59;14.10;99.90
4052;DHT22;2040;50.924;11.604;2022-09-09T04:31:24;14.00;99.90
4052;DHT22;2040;50.924;11.604;2022-09-09T04:33:50;13.90;99.90
4052;DHT22;2040;50.924;11.604;2022-09-09T04:36:16;14.00;99.90
4052;DHT22;2040;50.924;11.604;2022-09-09T04:38:43;14.00;99.90
4052;DHT22;2040;50.924;11.604;2022-09-09T04:41:10;14.10;99.90
4052;DHT22;2040;50.924;11.604;2022-09-09T04:43:37;14.10;99.90
4052;DHT22;2040;50.924;11.604;2022-09-09T04:46:03;14.00;99.90
4052;DHT22;2040;50.924;11.604;2022-09-09T04:48:29;13.90;99.90
4052;DHT22;2040;50.924;11.604;2022-09-09T04:51:04;13.90;99.90
4052;DHT22;2040;50.924;11.604;2022-09-09T04:53:30;13.90;99.90
4052;DHT22;2040;50.924;11.604;2022-09-09T04:56:08;13.90;99.90
4052;DHT22;2040;50.924;11.604;2022-09-09T04:58:36;13.90;99.90
4052;DHT22;2040;50.924;11.604;2022-09-09T05:01:13;13.70;99.90
4052;DHT22;2040;50.924;11.604;2022-09-09T05:03:39;13.60;99.90
4052;DHT22;2040;50.924;11.604;2022-09-09T05:06:09;13.50;99.90
4052;DHT22;2040;50.924;11.604;2022-09-09T05:08:39;13.40;99.90
4052;DHT22;2040;50.924;11.604;2022-09-09T05:11:22;13.30;99.90
4052;DHT22;2040;50.924;11.604;2022-09-09T05:13:50;13.10;99.90
4052;DHT22;2040;50.924;11.604;2022-09-09T05:16:16;13.10;99.90
4052;DHT22;2040;50.924;11.604;2022-09-09T05:18:43;13.10;99.90
4052;DHT22;2040;50.924;11.604;2022-09-09T05:21:09;13.10;99.90
4052;DHT22;2040;50.924;11.604;2022-09-09T05:23:35;13.20;99.90
4052;DHT22;2040;50.924;11.604;2022-09-09T05:26:02;13.20;99.90
4052;DHT22;2040;50.924;11.604;2022-09-09T05:28:28;13.30;99.90
4052;DHT22;2040;50.924;11.604;2022-09-09T05:30:59;13.50;99.90
4052;DHT22;2040;50.924;11.604;2022-09-09T05:33:27;13.50;99.90
4052;DHT22;2040;50.924;11.604;2022-09-09T05:36:01;13.60;99.90
4052;DHT22;2040;50.924;11.604;2022-09-09T05:38:29;13.70;99.90
4052;DHT22;2040;50.924;11.604;2022-09-09T05:40:55;13.90;99.90
4052;DHT22;2040;50.924;11.604;2022-09-09T05:43:23;13.90;99.90
4052;DHT22;2040;50.924;11.604;2022-09-09T05:45:59;14.00;99.90
4052;DHT22;2040;50.924;11.604;2022-09-09T05:48:28;14.00;99.90
4052;DHT22;2040;50.924;11.604;2022-09-09T05:50:54;14.10;99.90
4052;DHT22;2040;50.924;11.604;2022-09-09T05:53:20;14.10;99.90
4052;DHT22;2040;50.924;11.604;2022-09-09T05:55:46;14.20;99.90
4052;DHT22;2040;50.924;11.604;2022-09-09T05:58:13;14.30;99.90
4052;DHT22;2040;50.924;11.604;2022-09-09T06:00:40;14.30;99.90
4052;DHT22;2040;50.924;11.604;2022-09-09T06:03:05;14.40;99.90
4052;DHT22;2040;50.924;11.604;2022-09-09T06:05:31;14.50;99.90
4052;DHT22;2040;50.924;11.604;2022-09-09T06:07:56;14.50;99.90
4052;DHT22;2040;50.924;11.604;2022-09-09T06:10:22;14.60;99.90
4052;DHT22;2040;50.924;11.604;2022-09-09T06:12:48;14.60;99.90
4052;DHT22;2040;50.924;11.604;2022-09-09T06:15:13;14.60;99.90
4052;DHT22;2040;50.924;11.604;2022-09-09T06:17:39;14.70;99.90
4052;DHT22;2040;50.924;11.604;2022-09-09T06:20:05;14.70;99.90
4052;DHT22;2040;50.924;11.604;2022-09-09T06:22:31;14.70;99.90
4052;DHT22;2040;50.924;11.604;2022-09-09T06:24:56;14.80;99.90
4052;DHT22;2040;50.924;11.604;2022-09-09T06:27:22;14.70;99.90
4052;DHT22;2040;50.924;11.604;2022-09-09T06:29:48;14.70;99.90
4052;DHT22;2040;50.924;11.604;2022-09-09T06:32:13;14.70;99.90
4052;DHT22;2040;50.924;11.604;2022-09-09T06:34:39;14.70;99.90
4052;DHT22;2040;50.924;11.604;2022-09-09T06:37:05;14.70;99.90
4052;DHT22;2040;50.924;11.604;2022-09-09T06:39:32;14.80;99.90
4052;DHT22;2040;50.924;11.604;2022-09-09T06:41:57;15.00;99.90
4052;DHT22;2040;50.924;11.604;2022-09-09T06:44:24;15.10;99.90
4052;DHT22;2040;50.924;11.604;2022-09-09T06:46:52;15.20;99.90
4052;DHT22;2040;50.924;11.604;2022-09-09T06:49:17;15.40;99.90
4052;DHT22;2040;50.924;11.604;2022-09-09T06:51:43;15.50;99.90
4052;DHT22;2040;50.924;11.604;2022-09-09T06:54:10;15.60;99.90
4052;DHT22;2040;50.924;11.604;2022-09-09T06:56:51;15.70;99.90
4052;DHT22;2040;50.924;11.604;2022-09-09T06:59:17;15.60;99.90
4052;DHT22;2040;50.924;11.604;2022-09-09T07:01:43;15.60;99.90
4052;DHT22;2040;50.924;11.604;2022-09-09T07:04:09;15.50;99.90
4052;DHT22;2040;50.924;11.604;2022-09-09T07:06:41;15.60;99.90
4052;DHT22;2040;50.924;11.604;2022-09-09T07:09:10;15.60;99.90
4052;DHT22;2040;50.924;11.604;2022-09-09T07:11:42;15.60;99.90
4052;DHT22;2040;50.924;11.604;2022-09-09T07:14:09;15.60;99.90
4052;DHT22;2040;50.924;11.604;2022-09-09T07:16:38;15.60;99.90
4052;DHT22;2040;50.924;11.604;2022-09-09T07:19:04;15.60;99.90
4052;DHT22;2040;50.924;11.604;2022-09-09T07:21:31;15.70;99.90
4052;DHT22;2040;50.924;11.604;2022-09-09T07:23:57;15.70;99.90
4052;DHT22;2040;50.924;11.604;2022-09-09T07:26:25;15.80;99.90
4052;DHT22;2040;50.924;11.604;2022-09-09T07:28:52;15.90;99.90
4052;DHT22;2040;50.924;11.604;2022-09-09T07:31:20;16.20;99.90
4052;DHT22;2040;50.924;11.604;2022-09-09T07:33:46;16.40;99.90
4052;DHT22;2040;50.924;11.604;2022-09-09T07:36:51;16.60;99.90
4052;DHT22;2040;50.924;11.604;2022-09-09T07:39:12;16.70;99.90
4052;DHT22;2040;50.924;11.604;2022-09-09T07:41:48;16.70;99.90
4052;DHT22;2040;50.924;11.604;2022-09-09T07:44:16;16.80;99.90
4052;DHT22;2040;50.924;11.604;2022-09-09T07:46:43;16.90;99.90
4052;DHT22;2040;50.924;11.604;2022-09-09T07:49:11;17.00;99.90
4052;DHT22;2040;50.924;11.604;2022-09-09T07:51:43;17.00;99.90
4052;DHT22;2040;50.924;11.604;2022-09-09T07:54:12;17.00;99.90
4052;DHT22;2040;50.924;11.604;2022-09-09T07:56:39;17.00;99.90
4052;DHT22;2040;50.924;11.604;2022-09-09T07:59:05;17.00;99.90
4052;DHT22;2040;50.924;11.604;2022-09-09T08:01:33;17.10;99.90
4052;DHT22;2040;50.924;11.604;2022-09-09T08:04:05;17.10;99.90
4052;DHT22;2040;50.924;11.604;2022-09-09T08:06:41;17.00;99.90
4052;DHT22;2040;50.924;11.604;2022-09-09T08:09:09;17.20;99.90
4052;DHT22;2040;50.924;11.604;2022-09-09T08:11:35;17.20;99.90
4052;DHT22;2040;50.924;11.604;2022-09-09T08:14:01;17.30;99.90
4052;DHT22;2040;50.924;11.604;2022-09-09T08:16:29;17.20;99.90
4052;DHT22;2040;50.924;11.604;2022-09-09T08:18:56;17.30;99.90
4052;DHT22;2040;50.924;11.604;2022-09-09T08:21:24;17.30;99.90
4052;DHT22;2040;50.924;11.604;2022-09-09T08:23:51;17.40;99.90
4052;DHT22;2040;50.924;11.604;2022-09-09T08:26:32;17.60;99.90
4052;DHT22;2040;50.924;11.604;2022-09-09T08:29:00;17.50;99.90
4052;DHT22;2040;50.924;11.604;2022-09-09T08:31:28;17.60;99.90
4052;DHT22;2040;50.924;11.604;2022-09-09T08:33:55;17.70;99.90
4052;DHT22;2040;50.924;11.604;2022-09-09T08:36:23;17.80;99.90
4052;DHT22;2040;50.924;11.604;2022-09-09T08:38:50;18.00;99.90
4052;DHT22;2040;50.924;11.604;2022-09-09T08:44:25;18.40;99.90
4052;DHT22;2040;50.924;11.604;2022-09-09T08:47:21;18.60;99.90
4052;DHT22;2040;50.924;11.604;2022-09-09T08:50:02;18.80;99.90
4052;DHT22;2040;50.924;11.604;2022-09-09T08:52:32;18.90;99.90
4052;DHT22;2040;50.924;11.604;2022-09-09T08:55:22;19.10;99.90
4052;DHT22;2040;50.924;11.604;2022-09-09T08:57:53;19.30;99.90
4052;DHT22;2040;50.924;11.604;2022-09-09T09:00:20;19.40;99.90
4052;DHT22;2040;50.924;11.604;2022-09-09T09:05:31;19.50;99.90
4052;DHT22;2040;50.924;11.604;2022-09-09T09:08:21;19.60;99.90
4052;DHT22;2040;50.924;11.604;2022-09-09T09:10:54;19.80;99.90
4052;DHT22;2040;50.924;11.604;2022-09-09T09:19:13;20.10;99.90
4052;DHT22;2040;50.924;11.604;2022-09-09T09:21:45;20.10;99.90
4052;DHT22;2040;50.924;11.604;2022-09-09T09:27:18;21.00;99.90
4052;DHT22;2040;50.924;11.604;2022-09-09T09:29:48;21.00;99.90
4052;DHT22;2040;50.924;11.604;2022-09-09T09:32:18;21.10;99.90
4052;DHT22;2040;50.924;11.604;2022-09-09T09:34:55;21.30;99.90
4052;DHT22;2040;50.924;11.604;2022-09-09T09:37:30;21.60;99.90
4052;DHT22;2040;50.924;11.604;2022-09-09T09:40:07;21.50;99.90
4052;DHT22;2040;50.924;11.604;2022-09-09T09:42:33;21.60;99.90
4052;DHT22;2040;50.924;11.604;2022-09-09T09:45:12;21.60;99.90
4052;DHT22;2040;50.924;11.604;2022-09-09T09:47:41;21.50;99.90
4052;DHT22;2040;50.924;11.604;2022-09-09T09:50:18;21.20;99.90
4052;DHT22;2040;50.924;11.604;2022-09-09T09:52:54;20.80;99.90
4052;DHT22;2040;50.924;11.604;2022-09-09T09:55:22;20.50;99.90
4052;DHT22;2040;50.924;11.604;2022-09-09T09:57:52;20.30;99.90
4052;DHT22;2040;50.924;11.604;2022-09-09T10:00:19;20.10;99.90
4052;DHT22;2040;50.924;11.604;2022-09-09T10:02:46;20.00;99.90
4052;DHT22;2040;50.924;11.604;2022-09-09T10:07:44;20.00;99.90
4052;DHT22;2040;50.924;11.604;2022-09-09T10:10:24;19.90;99.90
4052;DHT22;2040;50.924;11.604;2022-09-09T10:13:11;20.00;99.90
4052;DHT22;2040;50.924;11.604;2022-09-09T10:16:01;20.40;99.90
4052;DHT22;2040;50.924;11.604;2022-09-09T10:24:16;21.30;99.90
4052;DHT22;2040;50.924;11.604;2022-09-09T10:32:36;21.70;99.90
4052;DHT22;2040;50.924;11.604;2022-09-09T10:38:01;21.60;99.90
4052;DHT22;2040;50.924;11.604;2022-09-09T10:40:33;22.10;99.90
4052;DHT22;2040;50.924;11.604;2022-09-09T10:43:17;22.20;99.90
4052;DHT22;2040;50.924;11.604;2022-09-09T10:48:57;22.20;99.90
4052;DHT22;2040;50.924;11.604;2022-09-09T10:56:28;23.40;99.90
4052;DHT22;2040;50.924;11.604;2022-09-09T10:59:02;23.00;99.90
4052;DHT22;2040;50.924;11.604;2022-09-09T11:01:54;22.70;99.90
4052;DHT22;2040;50.924;11.604;2022-09-09T11:04:27;23.00;99.90
4052;DHT22;2040;50.924;11.604;2022-09-09T11:06:57;23.40;99.90
4052;DHT22;2040;50.924;11.604;2022-09-09T11:09:28;23.70;99.90
4052;DHT22;2040;50.924;11.604;2022-09-09T11:11:57;24.10;99.90
4052;DHT22;2040;50.924;11.604;2022-09-09T11:14:45;23.80;99.90
4052;DHT22;2040;50.924;11.604;2022-09-09T11:17:16;23.40;99.90
4052;DHT22;2040;50.924;11.604;2022-09-09T11:19:44;23.10;99.90
4052;DHT22;2040;50.924;11.604;2022-09-09T11:22:39;23.00;99.90
4052;DHT22;2040;50.924;11.604;2022-09-09T11:25:19;23.30;99.90
4052;DHT22;2040;50.924;11.604;2022-09-09T11:34:13;23.50;99.90
4052;DHT22;2040;50.924;11.604;2022-09-09T11:36:51;24.30;99.90
4052;DHT22;2040;50.924;11.604;2022-09-09T11:44:41;23.60;99.90
4052;DHT22;2040;50.924;11.604;2022-09-09T11:47:27;23.80;99.90
4052;DHT22;2040;50.924;11.604;2022-09-09T11:52:41;24.30;99.90
4052;DHT22;2040;50.924;11.604;2022-09-09T11:55:29;24.80;99.90
4052;DHT22;2040;50.924;11.604;2022-09-09T12:00:44;24.40;99.90
4052;DHT22;2040;50.924;11.604;2022-09-09T12:08:41;23.20;99.90
4052;DHT22;2040;50.924;11.604;2022-09-09T12:11:08;22.80;99.90
4052;DHT22;2040;50.924;11.604;2022-09-09T12:13:33;22.40;99.90
4052;DHT22;2040;50.924;11.604;2022-09-09T12:16:00;21.90;99.90
4052;DHT22;2040;50.924;11.604;2022-09-09T12:18:39;21.60;99.90
4052;DHT22;2040;50.924;11.604;2022-09-09T12:21:32;21.40;99.90
4052;DHT22;2040;50.924;11.604;2022-09-09T12:24:34;21.50;99.90
4052;DHT22;2040;50.924;11.604;2022-09-09T12:27:08;21.70;99.90
4052;DHT22;2040;50.924;11.604;2022-09-09T12:29:56;21.50;99.90
4052;DHT22;2040;50.924;11.604;2022-09-09T12:32:25;21.20;99.90
4052;DHT22;2040;50.924;11.604;2022-09-09T12:35:02;21.30;99.90
4052;DHT22;2040;50.924;11.604;2022-09-09T12:37:51;21.20;99.90
4052;DHT22;2040;50.924;11.604;2022-09-09T12:40:23;21.10;99.90
4052;DHT22;2040;50.924;11.604;2022-09-09T12:42:52;21.00;99.90
4052;DHT22;2040;50.924;11.604;2022-09-09T12:45:23;21.20;99.90
4052;DHT22;2040;50.924;11.604;2022-09-09T12:47:56;21.20;99.90
4052;DHT22;2040;50.924;11.604;2022-09-09T12:50:25;21.20;99.90
4052;DHT22;2040;50.924;11.604;2022-09-09T12:53:12;21.10;99.90
4052;DHT22;2040;50.924;11.604;2022-09-09T12:55:50;21.10;99.90
4052;DHT22;2040;50.924;11.604;2022-09-09T12:58:17;21.00;99.90
4052;DHT22;2040;50.924;11.604;2022-09-09T13:00:54;21.20;99.90
4052;DHT22;2040;50.924;11.604;2022-09-09T13:03:23;21.40;99.90
4052;DHT22;2040;50.924;11.604;2022-09-09T13:05:50;21.40;99.90
4052;DHT22;2040;50.924;11.604;2022-09-09T13:08:18;21.30;99.90
4052;DHT22;2040;50.924;11.604;2022-09-09T13:13:16;21.00;99.90
4052;DHT22;2040;50.924;11.604;2022-09-09T13:15:57;21.00;99.90
4052;DHT22;2040;50.924;11.604;2022-09-09T13:18:25;20.90;99.90
4052;DHT22;2040;50.924;11.604;2022-09-09T13:20:56;20.80;99.90
4052;DHT22;2040;50.924;11.604;2022-09-09T13:23:31;20.70;99.90
4052;DHT22;2040;50.924;11.604;2022-09-09T13:28:30;20.50;99.90
4052;DHT22;2040;50.924;11.604;2022-09-09T13:31:03;20.50;99.90
4052;DHT22;2040;50.924;11.604;2022-09-09T13:33:40;20.60;99.90
4052;DHT22;2040;50.924;11.604;2022-09-09T13:36:10;20.40;99.90
4052;DHT22;2040;50.924;11.604;2022-09-09T13:38:52;20.30;99.90
4052;DHT22;2040;50.924;11.604;2022-09-09T13:42:05;20.20;99.90
4052;DHT22;2040;50.924;11.604;2022-09-09T13:44:30;20.20;99.90
4052;DHT22;2040;50.924;11.604;2022-09-09T13:47:18;20.10;99.90
4052;DHT22;2040;50.924;11.604;2022-09-09T13:49:45;20.10;99.90
4052;DHT22;2040;50.924;11.604;2022-09-09T13:52:13;20.00;99.90
4052;DHT22;2040;50.924;11.604;2022-09-09T13:54:40;20.00;99.90
4052;DHT22;2040;50.924;11.604;2022-09-09T13:57:21;20.00;99.90
4052;DHT22;2040;50.924;11.604;2022-09-09T13:59:46;20.60;99.90
4052;DHT22;2040;50.924;11.604;2022-09-09T14:02:14;21.50;99.90
4052;DHT22;2040;50.924;11.604;2022-09-09T14:04:46;22.20;99.90
4052;DHT22;2040;50.924;11.604;2022-09-09T14:07:16;22.80;99.90
4052;DHT22;2040;50.924;11.604;2022-09-09T14:09:42;23.20;99.90
4052;DHT22;2040;50.924;11.604;2022-09-09T14:12:12;23.50;99.90
4052;DHT22;2040;50.924;11.604;2022-09-09T14:14:38;23.50;99.90
4052;DHT22;2040;50.924;11.604;2022-09-09T14:17:17;23.90;99.90
4052;DHT22;2040;50.924;11.604;2022-09-09T14:19:45;24.00;99.90
4052;DHT22;2040;50.924;11.604;2022-09-09T14:22:16;24.00;99.90
4052;DHT22;2040;50.924;11.604;2022-09-09T14:24:48;23.70;99.90
4052;DHT22;2040;50.924;11.604;2022-09-09T14:27:17;24.10;99.90
4052;DHT22;2040;50.924;11.604;2022-09-09T14:29:44;24.10;99.90
4052;DHT22;2040;50.924;11.604;2022-09-09T14:32:10;23.90;99.90
4052;DHT22;2040;50.924;11.604;2022-09-09T14:34:36;23.70;99.90
4052;DHT22;2040;50.924;11.604;2022-09-09T14:37:02;24.00;99.90
4052;DHT22;2040;50.924;11.604;2022-09-09T14:39:30;24.30;99.90
4052;DHT22;2040;50.924;11.604;2022-09-09T14:41:56;24.50;99.90
4052;DHT22;2040;50.924;11.604;2022-09-09T14:44:24;24.60;99.90
4052;DHT22;2040;50.924;11.604;2022-09-09T14:46:53;24.60;99.90
4052;DHT22;2040;50.924;11.604;2022-09-09T14:49:25;24.60;99.90
4052;DHT22;2040;50.924;11.604;2022-09-09T14:51:51;24.70;99.90
4052;DHT22;2040;50.924;11.604;2022-09-09T14:54:19;24.60;99.90
4052;DHT22;2040;50.924;11.604;2022-09-09T14:56:46;24.60;99.90
4052;DHT22;2040;50.924;11.604;2022-09-09T14:59:12;24.70;99.90
4052;DHT22;2040;50.924;11.604;2022-09-09T15:01:40;24.70;99.90
4052;DHT22;2040;50.924;11.604;2022-09-09T15:04:06;24.50;99.90
4052;DHT22;2040;50.924;11.604;2022-09-09T15:06:34;24.40;99.90
4052;DHT22;2040;50.924;11.604;2022-09-09T15:09:02;24.40;99.90
4052;DHT22;2040;50.924;11.604;2022-09-09T15:11:30;23.90;99.90
4052;DHT22;2040;50.924;11.604;2022-09-09T15:14:07;23.90;99.90
4052;DHT22;2040;50.924;11.604;2022-09-09T15:16:33;24.00;99.90
4052;DHT22;2040;50.924;11.604;2022-09-09T15:19:00;23.90;99.90
4052;DHT22;2040;50.924;11.604;2022-09-09T15:21:31;23.90;99.90
4052;DHT22;2040;50.924;11.604;2022-09-09T15:23:58;23.90;99.90
4052;DHT22;2040;50.924;11.604;2022-09-09T15:26:25;24.00;99.90
4052;DHT22;2040;50.924;11.604;2022-09-09T15:28:51;23.90;99.90
4052;DHT22;2040;50.924;11.604;2022-09-09T15:31:18;23.70;99.90
4052;DHT22;2040;50.924;11.604;2022-09-09T15:33:48;23.40;99.90
4052;DHT22;2040;50.924;11.604;2022-09-09T15:36:16;23.10;99.90
4052;DHT22;2040;50.924;11.604;2022-09-09T15:38:42;22.70;99.90
4052;DHT22;2040;50.924;11.604;2022-09-09T15:41:09;22.80;99.90
4052;DHT22;2040;50.924;11.604;2022-09-09T15:43:35;22.70;99.90
4052;DHT22;2040;50.924;11.604;2022-09-09T15:48:43;22.90;99.90
4052;DHT22;2040;50.924;11.604;2022-09-09T15:51:13;22.70;99.90
4052;DHT22;2040;50.924;11.604;2022-09-09T15:53:39;22.70;99.90
4052;DHT22;2040;50.924;11.604;2022-09-09T15:56:06;22.70;99.90
4052;DHT22;2040;50.924;11.604;2022-09-09T15:58:32;22.70;99.90
4052;DHT22;2040;50.924;11.604;2022-09-09T16:01:05;22.70;99.90
4052;DHT22;2040;50.924;11.604;2022-09-09T16:03:42;22.60;99.90
4052;DHT22;2040;50.924;11.604;2022-09-09T16:06:08;22.40;99.90
4052;DHT22;2040;50.924;11.604;2022-09-09T16:08:40;22.20;99.90
4052;DHT22;2040;50.924;11.604;2022-09-09T16:13:36;22.10;99.90
4052;DHT22;2040;50.924;11.604;2022-09-09T16:16:03;21.70;99.90
4052;DHT22;2040;50.924;11.604;2022-09-09T16:18:57;21.50;99.90
4052;DHT22;2040;50.924;11.604;2022-09-09T16:21:31;21.30;99.90
4052;DHT22;2040;50.924;11.604;2022-09-09T16:23:59;20.90;99.90
4052;DHT22;2040;50.924;11.604;2022-09-09T16:26:25;21.00;99.90
4052;DHT22;2040;50.924;11.604;2022-09-09T16:28:51;20.90;99.90
4052;DHT22;2040;50.924;11.604;2022-09-09T16:31:21;20.60;99.90
4052;DHT22;2040;50.924;11.604;2022-09-09T16:33:48;20.70;99.90
4052;DHT22;2040;50.924;11.604;2022-09-09T16:36:35;20.70;99.90
4052;DHT22;2040;50.924;11.604;2022-09-09T16:39:05;20.70;99.90
4052;DHT22;2040;50.924;11.604;2022-09-09T16:41:31;20.50;99.90
4052;DHT22;2040;50.924;11.604;2022-09-09T16:43:59;20.30;99.90
4052;DHT22;2040;50.924;11.604;2022-09-09T16:46:27;20.30;99.90
4052;DHT22;2040;50.924;11.604;2022-09-09T16:48:55;20.20;99.90
4052;DHT22;2040;50.924;11.604;2022-09-09T16:51:37;20.30;99.90
4052;DHT22;2040;50.924;11.604;2022-09-09T16:54:05;20.20;99.90
4052;DHT22;2040;50.924;11.604;2022-09-09T16:56:33;20.20;99.90
4052;DHT22;2040;50.924;11.604;2022-09-09T16:59:01;20.10;99.90
4052;DHT22;2040;50.924;11.604;2022-09-09T17:01:29;19.90;99.90
4052;DHT22;2040;50.924;11.604;2022-09-09T17:03:57;19.70;99.90
4052;DHT22;2040;50.924;11.604;2022-09-09T17:06:23;19.50;99.90
4052;DHT22;2040;50.924;11.604;2022-09-09T17:09:15;19.60;99.90
4052;DHT22;2040;50.924;11.604;2022-09-09T17:11:41;19.50;99.90
4052;DHT22;2040;50.924;11.604;2022-09-09T17:14:09;19.40;99.90
4052;DHT22;2040;50.924;11.604;2022-09-09T17:16:36;19.40;99.90
4052;DHT22;2040;50.924;11.604;2022-09-09T17:19:04;19.30;99.90
4052;DHT22;2040;50.924;11.604;2022-09-09T17:21:31;19.20;99.90
4052;DHT22;2040;50.924;11.604;2022-09-09T17:23:58;19.20;99.90
4052;DHT22;2040;50.924;11.604;2022-09-09T17:26:28;19.10;99.90
4052;DHT22;2040;50.924;11.604;2022-09-09T17:28:55;19.10;99.90
4052;DHT22;2040;50.924;11.604;2022-09-09T17:31:23;19.00;99.90
4052;DHT22;2040;50.924;11.604;2022-09-09T17:33:50;18.80;99.90
4052;DHT22;2040;50.924;11.604;2022-09-09T17:36:32;18.60;99.90
4052;DHT22;2040;50.924;11.604;2022-09-09T17:39:00;18.50;99.90
4052;DHT22;2040;50.924;11.604;2022-09-09T17:41:31;18.40;99.90
4052;DHT22;2040;50.924;11.604;2022-09-09T17:43:57;18.40;99.90
4052;DHT22;2040;50.924;11.604;2022-09-09T17:46:29;18.30;99.90
4052;DHT22;2040;50.924;11.604;2022-09-09T17:49:00;18.30;99.90